createdAt,value
2019-03-22T00:01:50.489Z,99.90
2019-03-22T00:05:16.509Z,99.90
2019-03-22T00:07:48.709Z,99.90
2019-03-22T00:20:57.824Z,99.90
2019-03-22T00:49:33.084Z,99.90
2019-03-22T00:52:15.443Z,99.90
2019-03-22T00:55:16.771Z,99.90
2019-03-22T01:01:49.416Z,99.90
2019-03-22T01:11:35.199Z,99.90
2019-03-22T01:20:43.207Z,99.90
2019-03-22T01:23:33.031Z,99.90
2019-03-22T01:26:33.431Z,99.90
2019-03-22T01:29:04.538Z,99.90
2019-03-22T01:31:54.398Z,99.90
2019-03-22T01:48:46.707Z,99.90
2019-03-22T01:58:44.913Z,99.90
2019-03-22T02:01:30.491Z,99.90
2019-03-22T02:11:13.859Z,99.90
2019-03-22T02:17:35.473Z,99.90
2019-03-22T02:37:02.911Z,99.90
2019-03-22T02:39:45.794Z,99.90
2019-03-22T02:42:28.652Z,99.90
2019-03-22T02:45:10.833Z,99.90
2019-03-22T02:47:53.190Z,99.90
2019-03-22T02:50:35.343Z,99.90
2019-03-22T02:53:17.931Z,99.90
2019-03-22T02:55:59.685Z,99.90
2019-03-22T02:58:41.563Z,99.90
2019-03-22T03:01:23.596Z,99.90
2019-03-22T03:04:06.268Z,99.90
2019-03-22T03:06:52.369Z,99.90
2019-03-22T03:09:34.723Z,99.90
2019-03-22T03:12:17.090Z,99.90
2019-03-22T03:14:58.928Z,99.90
2019-03-22T03:17:41.076Z,99.90
2019-03-22T03:20:23.495Z,99.90
2019-03-22T03:23:05.636Z,99.90
2019-03-22T03:25:48.259Z,99.90
2019-03-22T03:28:37.012Z,99.90
2019-03-22T03:31:15.299Z,99.90
2019-03-22T03:33:58.203Z,99.90
2019-03-22T03:36:40.441Z,99.90
2019-03-22T03:39:22.796Z,99.90
2019-03-22T03:42:05.800Z,99.90
2019-03-22T03:44:47.521Z,99.90
2019-03-22T03:47:29.877Z,99.90
2019-03-22T03:50:12.251Z,99.90
2019-03-22T03:52:54.775Z,99.90
2019-03-22T03:55:36.561Z,99.90
2019-03-22T03:58:19.177Z,99.90
2019-03-22T04:01:01.071Z,99.90
2019-03-22T04:10:42.336Z,99.90
2019-03-22T04:13:24.852Z,99.90
2019-03-22T04:20:00.141Z,99.90
2019-03-22T04:26:20.105Z,99.90
2019-03-22T04:32:47.396Z,99.90
2019-03-22T04:38:57.041Z,99.90
2019-03-22T04:42:26.647Z,99.90
2019-03-22T04:44:57.646Z,99.90
2019-03-22T04:48:04.655Z,99.90
2019-03-22T05:01:05.443Z,99.90
2019-03-22T05:03:48.007Z,99.90
2019-03-22T05:06:49.447Z,99.90
2019-03-22T05:12:45.438Z,99.90
2019-03-22T05:15:32.410Z,99.90
2019-03-22T05:22:03.196Z,99.90
2019-03-22T05:24:44.951Z,99.90
2019-03-22T05:31:01.565Z,99.90
2019-03-22T05:37:39.719Z,99.90
2019-03-22T05:43:31.664Z,99.90
2019-03-22T05:46:14.568Z,99.90
2019-03-22T05:48:57.127Z,99.90
2019-03-22T05:51:39.577Z,99.90
2019-03-22T06:01:48.995Z,99.90
2019-03-22T06:14:39.143Z,99.90
2019-03-22T06:20:49.497Z,99.90
2019-03-22T06:23:31.987Z,99.90
2019-03-22T06:26:14.580Z,99.90
2019-03-22T06:32:44.647Z,99.90
2019-03-22T06:35:45.856Z,99.90
2019-03-22T06:38:28.325Z,99.90
2019-03-22T06:41:16.741Z,99.90
2019-03-22T06:46:44.719Z,99.90
2019-03-22T06:52:40.391Z,99.90
2019-03-22T06:55:41.746Z,93.70
2019-03-22T06:58:25.075Z,89.80
2019-03-22T07:04:54.752Z,79.20
2019-03-22T07:07:37.107Z,64.00
2019-03-22T07:10:19.671Z,61.90
2019-03-22T07:13:01.683Z,53.20
2019-03-22T07:19:31.832Z,54.70
2019-03-22T07:22:18.083Z,58.40
2019-03-22T07:25:03.599Z,61.60
2019-03-22T07:40:59.951Z,96.80
2019-03-22T07:44:01.520Z,99.50
2019-03-22T07:46:43.311Z,99.90
2019-03-22T07:49:32.703Z,99.90
2019-03-22T07:52:35.088Z,99.90
2019-03-22T08:02:07.937Z,99.90
2019-03-22T08:12:19.206Z,99.90
2019-03-22T08:14:59.935Z,99.90
2019-03-22T08:21:01.271Z,81.70
2019-03-22T08:27:29.047Z,66.00
2019-03-22T08:36:59.357Z,54.90
2019-03-22T08:39:30.330Z,52.80
2019-03-22T08:42:01.367Z,53.50
2019-03-22T08:44:32.327Z,56.30
2019-03-22T08:47:03.436Z,52.40
2019-03-22T08:49:35.397Z,54.90
2019-03-22T08:52:06.563Z,57.20
2019-03-22T08:54:38.472Z,57.30
2019-03-22T08:57:10.606Z,59.70
2019-03-22T08:59:41.661Z,61.30
2019-03-22T09:02:12.582Z,58.60
2019-03-22T09:04:43.935Z,60.20
2019-03-22T09:07:14.915Z,56.80
2019-03-22T09:09:46.451Z,54.80
2019-03-22T09:12:17.568Z,53.50
2019-03-22T09:14:48.979Z,52.80
2019-03-22T09:17:20.521Z,54.90
2019-03-22T09:19:51.522Z,53.70
2019-03-22T09:22:22.538Z,50.20
2019-03-22T09:24:53.563Z,45.90
2019-03-22T09:27:24.570Z,50.10
2019-03-22T09:29:55.620Z,46.00
2019-03-22T09:32:26.631Z,47.90
2019-03-22T09:34:59.761Z,46.70
2019-03-22T09:37:30.325Z,46.90
2019-03-22T09:40:01.401Z,47.40
2019-03-22T09:42:32.439Z,48.00
2019-03-22T09:45:03.468Z,47.70
2019-03-22T09:47:34.972Z,49.00
2019-03-22T09:50:07.503Z,48.60
2019-03-22T09:52:38.589Z,47.60
2019-03-22T09:55:13.734Z,46.80
2019-03-22T09:57:42.562Z,47.60
2019-03-22T10:00:19.549Z,45.60
2019-03-22T10:02:51.460Z,45.20
2019-03-22T10:05:22.904Z,46.70
2019-03-22T10:07:54.510Z,44.00
2019-03-22T10:10:25.539Z,41.10
2019-03-22T10:12:56.569Z,42.50
2019-03-22T10:15:27.607Z,42.30
2019-03-22T10:17:58.616Z,43.20
2019-03-22T10:20:30.015Z,44.30
2019-03-22T10:23:01.088Z,42.60
2019-03-22T10:25:32.076Z,43.80
2019-03-22T10:28:03.113Z,43.80
2019-03-22T10:30:34.140Z,44.80
2019-03-22T10:33:05.155Z,46.40
2019-03-22T10:35:36.103Z,46.40
2019-03-22T10:38:16.063Z,43.50
2019-03-22T10:40:39.778Z,45.00
2019-03-22T10:43:12.902Z,44.50
2019-03-22T10:45:43.987Z,45.10
2019-03-22T10:48:15.177Z,44.50
2019-03-22T10:50:47.161Z,46.30
2019-03-22T10:53:18.109Z,46.10
2019-03-22T10:55:49.110Z,51.60
2019-03-22T10:58:21.662Z,48.90
2019-03-22T11:00:53.923Z,50.60
2019-03-22T11:03:24.890Z,49.80
2019-03-22T11:05:56.354Z,50.20
2019-03-22T11:08:27.798Z,50.00
2019-03-22T11:10:58.991Z,47.40
2019-03-22T11:13:30.164Z,50.00
2019-03-22T11:16:01.205Z,48.90
2019-03-22T11:18:37.595Z,47.90
2019-03-22T11:21:11.120Z,47.90
2019-03-22T11:23:44.789Z,46.10
2019-03-22T11:26:20.287Z,46.60
2019-03-22T11:28:54.564Z,47.10
2019-03-22T11:31:29.968Z,46.70
2019-03-22T11:34:03.670Z,45.50
2019-03-22T11:36:38.022Z,45.70
2019-03-22T11:39:15.898Z,44.30
2019-03-22T11:41:44.777Z,44.90
2019-03-22T11:44:16.182Z,48.70
2019-03-22T11:46:47.201Z,49.30
2019-03-22T11:49:18.214Z,46.30
2019-03-22T11:51:49.255Z,45.90
2019-03-22T11:54:20.275Z,48.70
2019-03-22T11:56:51.702Z,48.50
2019-03-22T11:59:22.706Z,46.80
2019-03-22T12:01:54.130Z,49.10
2019-03-22T12:04:25.089Z,48.20
2019-03-22T12:06:56.227Z,47.00
2019-03-22T12:09:27.234Z,46.30
2019-03-22T12:11:58.295Z,44.10
2019-03-22T12:14:29.323Z,42.60
2019-03-22T12:17:00.351Z,41.00
2019-03-22T12:19:31.399Z,42.60
2019-03-22T12:22:02.403Z,42.20
2019-03-22T12:24:33.451Z,43.70
2019-03-22T12:27:04.431Z,42.10
2019-03-22T12:29:35.442Z,43.90
2019-03-22T12:32:06.386Z,40.60
2019-03-22T12:34:37.322Z,40.50
2019-03-22T12:37:08.346Z,36.80
2019-03-22T12:39:39.383Z,37.10
2019-03-22T12:42:10.408Z,35.90
2019-03-22T12:44:41.473Z,35.00
2019-03-22T12:47:12.573Z,35.10
2019-03-22T12:49:43.721Z,37.20
2019-03-22T12:52:14.761Z,34.50
2019-03-22T12:54:45.847Z,34.30
2019-03-22T12:57:16.925Z,34.60
2019-03-22T12:59:48.809Z,36.70
2019-03-22T13:02:21.855Z,35.50
2019-03-22T13:04:56.905Z,36.20
2019-03-22T13:07:29.412Z,35.70
2019-03-22T13:10:05.915Z,34.60
2019-03-22T13:12:37.045Z,35.40
2019-03-22T13:15:08.741Z,35.20
2019-03-22T13:17:39.800Z,37.60
2019-03-22T13:20:12.391Z,36.70
2019-03-22T13:22:44.105Z,37.60
2019-03-22T13:25:16.961Z,35.50
2019-03-22T13:27:49.434Z,37.60
2019-03-22T13:30:32.479Z,37.40
2019-03-22T13:33:09.137Z,38.40
2019-03-22T13:35:40.905Z,35.80
2019-03-22T13:38:12.313Z,34.30
2019-03-22T13:40:44.423Z,36.00
2019-03-22T13:43:15.517Z,36.40
2019-03-22T13:45:46.854Z,38.60
2019-03-22T13:48:18.070Z,39.10
2019-03-22T13:50:49.449Z,38.60
2019-03-22T13:53:20.938Z,39.60
2019-03-22T13:55:52.693Z,40.00
2019-03-22T13:58:24.506Z,40.60
2019-03-22T14:00:56.773Z,39.90
2019-03-22T14:03:27.855Z,41.90
2019-03-22T14:05:59.653Z,39.80
2019-03-22T14:08:31.297Z,39.90
2019-03-22T14:11:02.823Z,38.90
2019-03-22T14:13:34.623Z,39.60
2019-03-22T14:16:05.750Z,39.30
2019-03-22T14:18:36.846Z,41.00
2019-03-22T14:21:07.958Z,41.10
2019-03-22T14:23:39.427Z,42.60
2019-03-22T14:26:11.017Z,43.80
2019-03-22T14:28:42.674Z,47.80
2019-03-22T14:31:13.817Z,46.60
2019-03-22T14:33:44.900Z,47.80
2019-03-22T14:36:16.177Z,49.60
2019-03-22T14:38:47.288Z,51.10
2019-03-22T14:41:18.392Z,53.00
2019-03-22T14:43:49.565Z,53.70
2019-03-22T14:46:20.675Z,56.00
2019-03-22T14:48:52.062Z,57.50
2019-03-22T14:51:25.245Z,58.50
2019-03-22T14:53:56.321Z,64.70
2019-03-22T14:56:27.425Z,68.10
2019-03-22T14:58:59.082Z,72.00
2019-03-22T15:01:30.193Z,76.60
2019-03-22T15:04:01.233Z,80.30
2019-03-22T15:06:32.398Z,86.00
2019-03-22T15:09:04.431Z,90.90
2019-03-22T15:11:35.559Z,93.30
2019-03-22T15:14:14.003Z,96.20
2019-03-22T15:17:07.241Z,97.60
2019-03-22T15:20:08.190Z,99.00
2019-03-22T15:23:01.265Z,99.90
2019-03-22T15:25:57.349Z,99.90
2019-03-22T15:28:48.277Z,99.90
2019-03-22T15:31:37.522Z,99.90
2019-03-22T15:34:26.947Z,99.90
2019-03-22T15:37:16.159Z,99.90
2019-03-22T15:40:03.695Z,99.90
2019-03-22T15:42:34.843Z,99.90
2019-03-22T15:45:08.109Z,99.90
2019-03-22T15:47:39.575Z,99.90
2019-03-22T15:50:11.967Z,99.90
2019-03-22T15:52:43.054Z,99.90
2019-03-22T15:55:14.099Z,99.90
2019-03-22T15:57:45.148Z,99.90
2019-03-22T16:00:18.638Z,99.90
2019-03-22T16:02:49.700Z,99.90
2019-03-22T16:05:20.779Z,99.90
2019-03-22T16:07:51.874Z,99.90
2019-03-22T16:10:22.935Z,99.90
2019-03-22T16:12:54.527Z,99.90
2019-03-22T16:15:25.883Z,99.90
2019-03-22T16:17:57.808Z,99.90
2019-03-22T16:20:29.379Z,99.90
2019-03-22T16:23:00.843Z,99.90
2019-03-22T16:25:31.944Z,99.90
2019-03-22T16:28:04.353Z,99.90
2019-03-22T16:30:35.433Z,99.90
2019-03-22T16:33:07.416Z,99.90
2019-03-22T16:35:38.807Z,99.90
2019-03-22T16:38:10.216Z,99.90
2019-03-22T16:40:41.715Z,99.90
2019-03-22T16:43:17.465Z,99.90
2019-03-22T16:45:49.407Z,99.90
2019-03-22T16:48:20.482Z,99.90
2019-03-22T16:50:52.254Z,99.90
2019-03-22T16:53:23.276Z,99.90
2019-03-22T16:55:54.965Z,99.90
2019-03-22T16:58:26.028Z,99.90
2019-03-22T17:00:57.078Z,99.90
2019-03-22T17:03:28.138Z,99.90
2019-03-22T17:05:59.284Z,99.90
2019-03-22T17:08:30.394Z,99.90
2019-03-22T17:11:02.060Z,99.90
2019-03-22T17:13:33.122Z,99.90
2019-03-22T17:16:04.446Z,99.90
2019-03-22T17:18:35.511Z,99.90
2019-03-22T17:21:06.570Z,99.90
2019-03-22T17:23:37.643Z,99.90
2019-03-22T17:26:09.962Z,99.90
2019-03-22T17:28:47.723Z,99.90
2019-03-22T17:31:18.855Z,99.90
2019-03-22T17:33:50.198Z,99.90
2019-03-22T17:36:22.604Z,99.90
2019-03-22T17:38:54.255Z,99.90
2019-03-22T17:41:25.316Z,99.90
2019-03-22T17:43:57.083Z,99.90
2019-03-22T17:46:28.755Z,99.90
2019-03-22T17:49:00.648Z,99.90
2019-03-22T17:51:32.439Z,99.90
2019-03-22T17:54:04.469Z,99.90
2019-03-22T17:56:35.995Z,99.90
2019-03-22T17:59:08.755Z,99.90
2019-03-22T18:01:43.264Z,99.90
2019-03-22T18:04:23.864Z,99.90
2019-03-22T18:06:48.816Z,99.90
2019-03-22T18:09:19.946Z,99.90
2019-03-22T18:11:50.989Z,99.90
2019-03-22T18:14:22.071Z,99.90
2019-03-22T18:16:53.640Z,99.90
2019-03-22T18:19:25.645Z,99.90
2019-03-22T18:21:57.160Z,99.90
2019-03-22T18:24:28.224Z,99.90
2019-03-22T18:27:00.676Z,99.90
2019-03-22T18:29:32.928Z,99.90
2019-03-22T18:32:08.142Z,99.90
2019-03-22T18:34:43.263Z,99.90
2019-03-22T18:37:14.294Z,99.90
2019-03-22T18:39:46.254Z,99.90
2019-03-22T18:42:17.719Z,99.90
2019-03-22T18:44:50.020Z,99.90
2019-03-22T18:47:21.110Z,99.90
2019-03-22T18:49:52.467Z,99.90
2019-03-22T18:52:23.515Z,99.90
2019-03-22T18:54:54.572Z,99.90
2019-03-22T18:57:26.123Z,99.90
2019-03-22T18:59:57.591Z,99.90
2019-03-22T19:02:29.502Z,99.90
2019-03-22T19:05:00.580Z,99.90
2019-03-22T19:07:32.339Z,99.90
2019-03-22T19:10:03.687Z,99.90
2019-03-22T19:12:34.753Z,99.90
2019-03-22T19:15:09.972Z,99.90
2019-03-22T19:17:41.407Z,99.90
2019-03-22T19:20:12.618Z,99.90
2019-03-22T19:22:43.686Z,99.90
2019-03-22T19:25:14.856Z,99.90
2019-03-22T19:27:47.955Z,99.90
2019-03-22T19:30:19.014Z,99.90
2019-03-22T19:32:50.103Z,99.90
2019-03-22T19:35:21.944Z,99.90
2019-03-22T19:37:53.004Z,99.90
2019-03-22T19:40:24.079Z,99.90
2019-03-22T19:42:55.149Z,99.90
2019-03-22T19:45:26.333Z,99.90
2019-03-22T19:47:57.799Z,99.90
2019-03-22T19:50:28.870Z,99.90
2019-03-22T19:52:59.955Z,99.90
2019-03-22T19:55:31.639Z,99.90
2019-03-22T19:58:03.051Z,99.90
2019-03-22T20:00:34.438Z,99.90
2019-03-22T20:03:05.503Z,99.90
2019-03-22T20:05:36.543Z,99.90
2019-03-22T20:08:07.598Z,99.90
2019-03-22T20:10:38.942Z,99.90
2019-03-22T20:13:10.401Z,99.90
2019-03-22T20:15:41.428Z,99.90
2019-03-22T20:18:12.829Z,99.90
2019-03-22T20:20:43.872Z,99.90
2019-03-22T20:23:16.203Z,99.90
2019-03-22T20:25:47.349Z,99.90
2019-03-22T20:28:18.458Z,99.90
2019-03-22T20:30:50.082Z,99.90
2019-03-22T20:33:21.572Z,99.90
2019-03-22T20:35:52.632Z,99.90
2019-03-22T20:38:23.661Z,99.90
2019-03-22T20:40:54.754Z,99.90
2019-03-22T20:43:26.442Z,99.90
2019-03-22T20:45:58.008Z,99.90
2019-03-22T20:48:29.098Z,99.90
2019-03-22T20:51:00.126Z,99.90
2019-03-22T20:53:31.201Z,99.90
2019-03-22T20:56:02.316Z,99.90
2019-03-22T20:58:33.379Z,99.90
2019-03-22T21:01:06.043Z,99.90
2019-03-22T21:03:37.586Z,99.90
2019-03-22T21:06:08.678Z,99.90
2019-03-22T21:08:40.155Z,99.90
2019-03-22T21:11:11.182Z,99.90
2019-03-22T21:13:42.271Z,99.90
2019-03-22T21:16:13.423Z,99.90
2019-03-22T21:18:44.967Z,99.90
2019-03-22T21:21:15.977Z,99.90
2019-03-22T21:23:47.026Z,99.90
2019-03-22T21:26:18.371Z,99.90
2019-03-22T21:28:50.360Z,99.90
2019-03-22T21:31:21.987Z,99.90
2019-03-22T21:33:53.084Z,99.90
2019-03-22T21:36:24.103Z,99.90
2019-03-22T21:38:55.190Z,99.90
2019-03-22T21:41:26.206Z,99.90
2019-03-22T21:43:58.365Z,99.90
2019-03-22T21:46:30.302Z,99.90
2019-03-22T21:49:01.980Z,99.90
2019-03-22T21:51:33.319Z,99.90
2019-03-22T21:54:05.183Z,99.90
2019-03-22T21:56:36.309Z,99.90
2019-03-22T21:59:07.374Z,99.90
2019-03-22T22:01:38.647Z,99.90
2019-03-22T22:04:13.879Z,99.90
2019-03-22T22:06:44.974Z,99.90
2019-03-22T22:09:16.014Z,99.90
2019-03-22T22:11:47.008Z,99.90
2019-03-22T22:14:18.659Z,99.90
2019-03-22T22:16:50.497Z,99.90
2019-03-22T22:19:22.002Z,99.90
2019-03-22T22:21:53.164Z,99.90
2019-03-22T22:24:24.555Z,99.90
2019-03-22T22:26:56.005Z,99.90
2019-03-22T22:29:27.110Z,99.90
2019-03-22T22:31:58.295Z,99.90
2019-03-22T22:34:29.699Z,99.90
2019-03-22T22:37:00.748Z,99.90
2019-03-22T22:39:31.916Z,99.90
2019-03-22T22:42:03.031Z,99.90
2019-03-22T22:44:34.108Z,99.90
2019-03-22T22:47:07.195Z,99.90
2019-03-22T22:49:39.180Z,99.90
2019-03-22T22:52:10.247Z,99.90
2019-03-22T22:54:41.314Z,99.90
2019-03-22T22:57:12.484Z,99.90
2019-03-22T22:59:43.668Z,99.90
2019-03-22T23:02:14.685Z,99.90
2019-03-22T23:04:45.703Z,99.90
2019-03-22T23:07:16.747Z,99.90
2019-03-22T23:09:48.191Z,99.90
2019-03-22T23:12:19.258Z,99.90
2019-03-22T23:14:50.790Z,99.90
2019-03-22T23:17:21.891Z,99.90
2019-03-22T23:19:53.311Z,99.90
2019-03-22T23:22:25.738Z,99.90
2019-03-22T23:24:56.765Z,99.90
2019-03-22T23:27:28.442Z,99.90
2019-03-22T23:29:59.467Z,99.90
2019-03-22T23:32:30.549Z,99.90
2019-03-22T23:35:01.907Z,99.90
2019-03-22T23:37:32.945Z,99.90
2019-03-22T23:40:05.669Z,99.90
2019-03-22T23:42:36.762Z,99.90
2019-03-22T23:45:08.009Z,99.90
2019-03-22T23:47:40.105Z,99.90
2019-03-22T23:50:11.223Z,99.90
2019-03-22T23:52:42.524Z,99.90
2019-03-22T23:55:14.423Z,99.90
2019-03-22T23:57:45.603Z,99.90
